createdAt,value
2017-01-31T00:01:51.193Z,7.03
2017-01-31T00:04:03.358Z,7.04
2017-01-31T00:06:14.027Z,7.05
2017-01-31T00:08:21.412Z,7.05
2017-01-31T00:10:28.794Z,7.04
2017-01-31T00:12:41.364Z,7.03
2017-01-31T00:14:54.263Z,7.05
2017-01-31T00:17:06.685Z,7.08
2017-01-31T00:19:19.010Z,7.11
2017-01-31T00:21:31.301Z,7.15
2017-01-31T00:23:43.576Z,7.16
2017-01-31T00:25:56.070Z,7.16
2017-01-31T00:28:08.399Z,7.15
2017-01-31T00:30:20.645Z,7.14
2017-01-31T00:32:27.849Z,7.11
2017-01-31T00:34:40.238Z,7.1
2017-01-31T00:36:52.512Z,7.07
2017-01-31T00:39:04.829Z,7.06
2017-01-31T00:41:12.074Z,7.06
2017-01-31T00:43:19.173Z,7.05
2017-01-31T00:45:31.342Z,7.03
2017-01-31T00:47:43.686Z,7.01
2017-01-31T00:49:56.167Z,7.02
2017-01-31T00:52:08.497Z,7.03
2017-01-31T00:54:15.725Z,7.04
2017-01-31T00:56:28.164Z,7.05
2017-01-31T00:58:35.307Z,7.05
2017-01-31T01:00:47.609Z,7.07
2017-01-31T01:02:59.924Z,7.08
2017-01-31T01:05:10.575Z,7.09
2017-01-31T01:07:22.846Z,7.08
2017-01-31T01:09:35.206Z,7.08
2017-01-31T01:11:47.590Z,7.08
2017-01-31T01:13:59.822Z,7.1
2017-01-31T01:16:02.023Z,7.11
2017-01-31T01:18:14.350Z,7.12
2017-01-31T01:20:24.821Z,7.13
2017-01-31T01:22:37.467Z,7.14
2017-01-31T01:24:50.043Z,7.16
2017-01-31T01:27:02.340Z,7.17
2017-01-31T01:29:14.542Z,7.2
2017-01-31T01:31:26.685Z,7.22
2017-01-31T01:33:38.942Z,7.25
2017-01-31T01:35:51.121Z,7.27
2017-01-31T01:38:03.307Z,7.29
2017-01-31T01:40:15.637Z,7.29
2017-01-31T01:42:27.939Z,7.29
2017-01-31T01:44:40.255Z,7.3
2017-01-31T01:46:52.365Z,7.33
2017-01-31T01:49:04.740Z,7.35
2017-01-31T01:51:17.249Z,7.35
2017-01-31T01:53:24.523Z,7.37
2017-01-31T01:55:36.685Z,7.38
2017-01-31T01:57:49.100Z,7.39
2017-01-31T01:59:56.745Z,7.42
2017-01-31T02:02:09.040Z,7.43
2017-01-31T02:04:21.339Z,7.44
2017-01-31T02:06:28.639Z,7.45
2017-01-31T02:08:35.881Z,7.46
2017-01-31T02:10:43.306Z,7.47
2017-01-31T02:12:55.717Z,7.49
2017-01-31T02:15:02.885Z,7.5
2017-01-31T02:19:25.667Z,7.52
2017-01-31T02:21:38.038Z,7.53
2017-01-31T02:23:45.417Z,7.53
2017-01-31T02:25:57.545Z,7.53
2017-01-31T02:28:04.767Z,7.53
2017-01-31T02:30:11.986Z,7.53
2017-01-31T02:32:24.573Z,7.53
2017-01-31T02:34:32.275Z,7.54
2017-01-31T02:36:44.918Z,7.53
2017-01-31T02:38:57.340Z,7.54
2017-01-31T02:41:07.842Z,7.53
2017-01-31T02:43:20.187Z,7.53
2017-01-31T02:45:32.562Z,7.51
2017-01-31T02:47:44.847Z,7.5
2017-01-31T02:49:57.169Z,7.48
2017-01-31T02:52:09.382Z,7.48
2017-01-31T02:54:16.513Z,7.49
2017-01-31T02:56:28.771Z,7.51
2017-01-31T02:58:40.974Z,7.51
2017-01-31T03:00:53.377Z,7.5
2017-01-31T03:03:05.563Z,7.51
2017-01-31T03:05:17.699Z,7.51
2017-01-31T03:07:30.057Z,7.5
2017-01-31T03:09:42.480Z,7.49
2017-01-31T03:11:55.133Z,7.48
2017-01-31T03:14:07.363Z,7.45
2017-01-31T03:16:19.664Z,7.45
2017-01-31T03:18:32.097Z,7.44
2017-01-31T03:20:44.263Z,7.47
2017-01-31T03:22:56.620Z,7.51
2017-01-31T03:25:08.875Z,7.53
2017-01-31T03:27:16.199Z,7.53
2017-01-31T03:29:28.481Z,7.51
2017-01-31T03:31:40.767Z,7.49
2017-01-31T03:33:53.129Z,7.49
2017-01-31T03:36:05.469Z,7.47
2017-01-31T03:38:17.873Z,7.44
2017-01-31T03:40:30.104Z,7.42
2017-01-31T03:42:32.374Z,7.39
2017-01-31T03:44:44.973Z,7.35
2017-01-31T03:46:57.292Z,7.32
2017-01-31T03:49:09.735Z,7.27
2017-01-31T03:51:21.988Z,7.27
2017-01-31T03:53:29.302Z,7.28
2017-01-31T03:55:41.588Z,7.29
2017-01-31T03:57:53.720Z,7.29
2017-01-31T04:00:05.911Z,7.27
2017-01-31T04:02:18.131Z,7.25
2017-01-31T04:04:30.270Z,7.22
2017-01-31T04:06:42.440Z,7.21
2017-01-31T04:08:54.528Z,7.18
2017-01-31T04:11:06.857Z,7.18
2017-01-31T04:13:14.136Z,7.17
2017-01-31T04:15:26.301Z,7.16
2017-01-31T04:17:33.564Z,7.13
2017-01-31T04:19:46.002Z,7.12
2017-01-31T04:21:58.345Z,7.11
2017-01-31T04:24:11.100Z,7.09
2017-01-31T04:26:23.420Z,7.09
2017-01-31T04:28:35.968Z,7.09
2017-01-31T04:30:48.327Z,7.09
2017-01-31T04:33:00.748Z,7.09
2017-01-31T04:35:13.240Z,7.11
2017-01-31T04:37:25.387Z,7.12
2017-01-31T04:39:37.720Z,7.12
2017-01-31T04:41:49.993Z,7.13
2017-01-31T04:44:02.140Z,7.17
2017-01-31T04:46:14.374Z,7.22
2017-01-31T04:48:26.523Z,7.27
2017-01-31T04:50:38.942Z,7.31
2017-01-31T04:52:46.074Z,7.34
2017-01-31T04:54:58.200Z,7.38
2017-01-31T04:57:05.880Z,7.43
2017-01-31T04:59:18.727Z,7.47
2017-01-31T05:01:31.310Z,7.52
2017-01-31T05:03:43.521Z,7.56
2017-01-31T05:05:55.738Z,7.6
2017-01-31T05:08:08.032Z,7.65
2017-01-31T05:10:20.154Z,7.66
2017-01-31T05:12:22.611Z,7.65
2017-01-31T05:14:34.809Z,7.65
2017-01-31T05:16:47.064Z,7.65
2017-01-31T05:18:59.387Z,7.68
2017-01-31T05:21:11.701Z,7.68
2017-01-31T05:23:23.879Z,7.69
2017-01-31T05:25:36.137Z,7.7
2017-01-31T05:27:48.430Z,7.71
2017-01-31T05:30:00.761Z,7.73
2017-01-31T05:32:13.214Z,7.75
2017-01-31T05:34:16.252Z,7.76
2017-01-31T05:36:28.574Z,7.77
2017-01-31T05:38:41.803Z,7.77
2017-01-31T05:40:52.272Z,7.78
2017-01-31T05:43:04.597Z,7.78
2017-01-31T05:45:16.858Z,7.8
2017-01-31T05:47:29.085Z,7.81
2017-01-31T05:49:36.328Z,7.83
2017-01-31T05:51:48.807Z,7.85
2017-01-31T05:54:01.092Z,7.87
2017-01-31T05:56:13.406Z,7.86
2017-01-31T05:58:25.738Z,7.86
2017-01-31T06:00:37.967Z,7.88
2017-01-31T06:02:50.163Z,7.87
2017-01-31T06:05:02.444Z,7.86
2017-01-31T06:07:14.901Z,7.86
2017-01-31T06:09:25.884Z,7.85
2017-01-31T06:11:33.276Z,7.83
2017-01-31T06:13:45.514Z,7.82
2017-01-31T06:15:57.714Z,7.82
2017-01-31T06:18:05.044Z,7.8
2017-01-31T06:20:17.163Z,7.79
2017-01-31T06:22:29.485Z,7.77
2017-01-31T06:24:40.046Z,7.74
2017-01-31T06:26:47.460Z,7.73
2017-01-31T06:28:59.953Z,7.73
2017-01-31T06:31:12.274Z,7.72
2017-01-31T06:33:24.427Z,7.72
2017-01-31T06:35:36.684Z,7.71
2017-01-31T06:37:48.996Z,7.7
2017-01-31T06:40:01.401Z,7.72
2017-01-31T06:42:08.954Z,7.73
2017-01-31T06:44:21.550Z,7.75
2017-01-31T06:46:33.888Z,7.8
2017-01-31T06:48:52.718Z,7.85
2017-01-31T06:51:06.558Z,7.88
2017-01-31T06:53:18.854Z,7.89
2017-01-31T06:55:31.025Z,7.91
2017-01-31T06:57:43.326Z,7.95
2017-01-31T06:59:50.816Z,7.97
2017-01-31T07:01:56.255Z,7.98
2017-01-31T07:04:08.705Z,7.98
2017-01-31T07:06:20.962Z,8.01
2017-01-31T07:08:33.290Z,8.05
2017-01-31T07:10:45.628Z,8.08
2017-01-31T07:12:53.008Z,8.1
2017-01-31T07:15:05.304Z,8.08
2017-01-31T07:17:17.792Z,8.08
2017-01-31T07:19:25.644Z,8.09
2017-01-31T07:21:37.936Z,8.07
2017-01-31T07:23:50.187Z,8.09
2017-01-31T07:26:02.391Z,8.13
2017-01-31T07:28:14.542Z,8.18
2017-01-31T07:30:26.667Z,8.25
2017-01-31T07:32:39.195Z,8.26
2017-01-31T07:34:51.665Z,8.27
2017-01-31T07:37:07.166Z,8.27
2017-01-31T07:39:19.693Z,8.28
2017-01-31T07:41:31.940Z,8.29
2017-01-31T07:43:44.435Z,8.3
2017-01-31T07:45:56.913Z,8.31
2017-01-31T07:48:09.011Z,8.3
2017-01-31T07:50:21.404Z,8.28
2017-01-31T07:52:34.727Z,8.3
2017-01-31T07:54:47.239Z,8.36
2017-01-31T07:57:00.607Z,8.48
2017-01-31T07:59:14.000Z,8.58
2017-01-31T08:01:28.308Z,8.71
2017-01-31T08:03:39.836Z,8.71
2017-01-31T08:05:42.159Z,8.69
2017-01-31T08:07:54.531Z,8.68
2017-01-31T08:10:06.748Z,8.66
2017-01-31T08:12:14.018Z,8.71
2017-01-31T08:14:26.199Z,8.82
2017-01-31T08:16:38.474Z,8.72
2017-01-31T08:18:50.787Z,8.76
2017-01-31T08:21:03.065Z,8.86
2017-01-31T08:23:13.537Z,8.94
2017-01-31T08:25:25.756Z,9.1
2017-01-31T08:27:38.159Z,9.07
2017-01-31T08:29:50.899Z,9.01
2017-01-31T08:31:58.379Z,9.04
2017-01-31T08:34:10.635Z,9.16
2017-01-31T08:36:17.975Z,9.31
2017-01-31T08:38:25.290Z,9.32
2017-01-31T08:40:37.692Z,9.24
2017-01-31T08:42:44.938Z,9.12
2017-01-31T08:44:57.342Z,9.05
2017-01-31T08:47:09.891Z,9.04
2017-01-31T08:49:22.125Z,9.02
2017-01-31T08:51:24.402Z,8.98
2017-01-31T08:53:36.676Z,9
2017-01-31T08:55:43.867Z,9
2017-01-31T08:57:56.168Z,9.02
2017-01-31T09:00:08.312Z,9.05
2017-01-31T09:02:20.790Z,9.05
2017-01-31T09:04:33.343Z,9.02
2017-01-31T09:06:45.888Z,8.99
2017-01-31T09:08:58.366Z,8.93
2017-01-31T09:11:10.585Z,8.93
2017-01-31T09:13:18.040Z,9
2017-01-31T09:15:30.271Z,9.07
2017-01-31T09:17:42.660Z,9.05
2017-01-31T09:19:55.147Z,9.02
2017-01-31T09:22:07.533Z,9
2017-01-31T09:24:19.853Z,8.97
2017-01-31T09:26:32.081Z,8.97
2017-01-31T09:28:44.230Z,8.99
2017-01-31T09:30:56.606Z,9.08
2017-01-31T09:33:09.035Z,9.31
2017-01-31T09:35:21.231Z,9.47
2017-01-31T09:37:28.475Z,9.52
2017-01-31T09:39:40.833Z,9.6
2017-01-31T09:41:53.575Z,9.71
2017-01-31T09:44:05.755Z,9.7
2017-01-31T09:46:12.954Z,9.44
2017-01-31T09:48:25.972Z,9.26
2017-01-31T09:50:38.320Z,9.11
2017-01-31T09:52:50.664Z,9.05
2017-01-31T09:55:03.000Z,9.06
2017-01-31T09:57:10.187Z,9.13
2017-01-31T09:59:22.388Z,9.21
2017-01-31T10:01:34.676Z,9.31
2017-01-31T10:03:46.971Z,9.43
2017-01-31T10:05:54.163Z,9.57
2017-01-31T10:08:06.475Z,9.62
2017-01-31T10:10:18.754Z,9.68
2017-01-31T10:12:25.933Z,9.65
2017-01-31T10:14:38.570Z,9.62
2017-01-31T10:16:51.196Z,9.52
2017-01-31T10:19:03.663Z,9.41
2017-01-31T10:21:15.852Z,9.42
2017-01-31T10:23:18.069Z,9.45
2017-01-31T10:25:22.498Z,9.46
2017-01-31T10:27:29.846Z,9.35
2017-01-31T10:29:42.008Z,9.29
2017-01-31T10:31:54.324Z,9.28
2017-01-31T10:34:06.493Z,9.31
2017-01-31T10:36:13.820Z,9.4
2017-01-31T10:38:26.203Z,9.47
2017-01-31T10:40:38.816Z,9.53
2017-01-31T10:42:51.034Z,9.65
2017-01-31T10:45:03.368Z,9.78
2017-01-31T10:47:15.725Z,9.79
2017-01-31T10:49:23.110Z,9.79
2017-01-31T10:51:35.589Z,9.73
2017-01-31T10:53:48.200Z,9.7
2017-01-31T10:56:00.633Z,9.67
2017-01-31T10:58:07.916Z,9.73
2017-01-31T11:00:20.212Z,9.83
2017-01-31T11:02:32.692Z,9.78
2017-01-31T11:04:42.922Z,9.62
2017-01-31T11:06:51.073Z,9.46
2017-01-31T11:09:08.715Z,9.38
2017-01-31T11:11:23.203Z,9.42
2017-01-31T11:13:36.244Z,9.46
2017-01-31T11:15:49.835Z,9.55
2017-01-31T11:18:02.440Z,9.52
2017-01-31T11:20:14.736Z,9.51
2017-01-31T11:22:27.617Z,9.58
2017-01-31T11:24:40.227Z,9.83
2017-01-31T11:26:55.047Z,10.09
2017-01-31T11:29:10.696Z,10.38
2017-01-31T11:31:18.265Z,10.75
2017-01-31T11:33:33.297Z,10.8
2017-01-31T11:35:45.626Z,10.55
2017-01-31T11:37:57.960Z,10.39
2017-01-31T11:40:13.041Z,10.36
2017-01-31T11:42:25.521Z,10.1
2017-01-31T11:44:33.124Z,9.96
2017-01-31T11:46:42.651Z,9.88
2017-01-31T11:48:53.178Z,9.86
2017-01-31T11:51:01.472Z,9.84
2017-01-31T11:53:14.287Z,9.83
2017-01-31T11:55:22.358Z,9.87
2017-01-31T11:57:34.882Z,9.85
2017-01-31T11:59:42.398Z,9.75
2017-01-31T12:01:55.017Z,9.54
2017-01-31T12:04:07.753Z,9.49
2017-01-31T12:06:15.918Z,9.58
2017-01-31T12:08:29.451Z,9.6
2017-01-31T12:10:41.626Z,9.62
2017-01-31T12:12:53.801Z,9.6
2017-01-31T12:15:06.165Z,9.51
2017-01-31T12:17:18.411Z,9.53
2017-01-31T12:19:30.798Z,9.63
2017-01-31T12:21:36.281Z,9.67
2017-01-31T12:23:48.576Z,9.71
2017-01-31T12:26:00.971Z,9.68
2017-01-31T12:28:13.177Z,9.7
2017-01-31T12:30:25.429Z,9.66
2017-01-31T12:32:32.723Z,9.57
2017-01-31T12:34:44.897Z,9.64
2017-01-31T12:36:57.512Z,9.68
2017-01-31T12:39:09.929Z,9.66
2017-01-31T12:41:22.212Z,9.64
2017-01-31T12:43:34.537Z,9.6
2017-01-31T12:45:41.741Z,9.56
2017-01-31T12:47:54.104Z,9.54
2017-01-31T12:50:06.476Z,9.5
2017-01-31T12:52:18.804Z,9.46
2017-01-31T12:54:31.074Z,9.46
2017-01-31T12:56:43.272Z,9.44
2017-01-31T12:58:55.691Z,9.42
2017-01-31T13:01:08.086Z,9.39
2017-01-31T13:03:20.352Z,9.43
2017-01-31T13:05:32.710Z,9.45
2017-01-31T13:07:40.007Z,9.43
2017-01-31T13:09:52.322Z,9.39
2017-01-31T13:12:04.682Z,9.33
2017-01-31T13:14:07.062Z,9.26
2017-01-31T13:16:19.364Z,9.21
2017-01-31T13:18:31.584Z,9.18
2017-01-31T13:20:44.362Z,9.15
2017-01-31T13:22:56.715Z,9.18
2017-01-31T13:25:09.110Z,9.21
2017-01-31T13:27:21.246Z,9.15
2017-01-31T13:29:33.683Z,9.06
2017-01-31T13:31:35.971Z,8.97
2017-01-31T13:33:48.264Z,8.91
2017-01-31T13:36:00.463Z,8.94
2017-01-31T13:38:12.723Z,9
2017-01-31T13:40:23.242Z,9.02
2017-01-31T13:42:52.069Z,9.01
2017-01-31T13:45:44.666Z,9.04
2017-01-31T13:48:09.234Z,9.15
2017-01-31T13:50:21.589Z,9.17
2017-01-31T13:52:29.397Z,9.27
2017-01-31T13:54:36.731Z,9.34
2017-01-31T13:56:49.091Z,9.37
2017-01-31T13:59:01.509Z,9.38
2017-01-31T14:01:13.697Z,9.44
2017-01-31T14:03:26.013Z,9.49
2017-01-31T14:05:33.350Z,9.4
2017-01-31T14:07:45.715Z,9.34
2017-01-31T14:09:58.313Z,9.29
2017-01-31T14:12:10.595Z,9.22
2017-01-31T14:14:22.818Z,9.16
2017-01-31T14:16:35.045Z,9.18
2017-01-31T14:18:42.319Z,9.19
2017-01-31T14:20:54.703Z,9.16
2017-01-31T14:23:07.109Z,9.14
2017-01-31T14:25:19.582Z,9.12
2017-01-31T14:27:22.003Z,9.1
2017-01-31T14:29:34.255Z,9.11
2017-01-31T14:31:46.484Z,9.12
2017-01-31T14:33:58.832Z,9.13
2017-01-31T14:36:11.096Z,9.11
2017-01-31T14:38:23.789Z,9.08
2017-01-31T14:40:37.274Z,9.06
2017-01-31T14:42:49.847Z,9.06
2017-01-31T14:45:02.096Z,9
2017-01-31T14:47:14.314Z,8.94
2017-01-31T14:49:26.546Z,8.89
2017-01-31T14:51:38.999Z,8.83
2017-01-31T14:53:51.309Z,8.78
2017-01-31T14:56:03.511Z,8.75
2017-01-31T14:58:15.873Z,8.67
2017-01-31T15:00:28.284Z,8.61
2017-01-31T15:02:40.878Z,8.58
2017-01-31T15:04:53.264Z,8.56
2017-01-31T15:07:05.503Z,8.51
2017-01-31T15:09:18.039Z,8.45
2017-01-31T15:11:30.382Z,8.37
2017-01-31T15:13:42.625Z,8.29
2017-01-31T15:15:54.943Z,8.25
2017-01-31T15:18:07.331Z,8.19
2017-01-31T15:20:17.888Z,8.17
2017-01-31T15:22:30.040Z,8.14
2017-01-31T15:24:42.276Z,8.11
2017-01-31T15:26:54.460Z,8.06
2017-01-31T15:29:06.887Z,8.03
2017-01-31T15:31:17.551Z,8.04
2017-01-31T15:33:28.344Z,8.04
2017-01-31T15:35:40.790Z,8.01
2017-01-31T15:37:53.165Z,7.99
2017-01-31T15:40:05.621Z,7.97
2017-01-31T15:42:17.943Z,7.94
2017-01-31T15:44:30.184Z,7.88
2017-01-31T15:46:42.736Z,7.83
2017-01-31T15:48:54.953Z,7.79
2017-01-31T15:51:07.200Z,7.74
2017-01-31T15:53:19.481Z,7.73
2017-01-31T15:55:31.702Z,7.7
2017-01-31T15:57:44.011Z,7.68
2017-01-31T15:59:56.238Z,7.66
2017-01-31T16:02:08.393Z,7.63
2017-01-31T16:04:20.740Z,7.58
2017-01-31T16:06:33.016Z,7.53
2017-01-31T16:08:45.260Z,7.49
2017-01-31T16:10:57.648Z,7.46
2017-01-31T16:13:10.409Z,7.43
2017-01-31T16:15:22.762Z,7.4
2017-01-31T16:17:35.083Z,7.37
2017-01-31T16:19:47.404Z,7.35
2017-01-31T16:21:59.889Z,7.32
2017-01-31T16:24:12.244Z,7.29
2017-01-31T16:26:19.703Z,7.26
2017-01-31T16:28:32.030Z,7.24
2017-01-31T16:30:58.108Z,7.2
2017-01-31T16:33:17.687Z,7.15
2017-01-31T16:35:25.026Z,7.11
2017-01-31T16:37:37.334Z,7.09
2017-01-31T16:39:49.786Z,7.1
2017-01-31T16:42:02.122Z,7.11
2017-01-31T16:44:14.380Z,7.12
2017-01-31T16:46:26.685Z,7.12
2017-01-31T16:48:39.564Z,7.11
2017-01-31T16:50:51.972Z,7.11
2017-01-31T16:52:59.528Z,7.1
2017-01-31T16:55:12.404Z,7.1
2017-01-31T16:57:24.796Z,7.09
2017-01-31T16:59:37.115Z,7.08
2017-01-31T17:01:49.418Z,7.06
2017-01-31T17:04:01.833Z,7.04
2017-01-31T17:06:14.237Z,7.01
2017-01-31T17:08:21.706Z,6.96
2017-01-31T17:10:34.048Z,6.9
2017-01-31T17:12:46.359Z,6.85
2017-01-31T17:14:58.598Z,6.81
2017-01-31T17:17:05.785Z,6.79
2017-01-31T17:19:18.066Z,6.79
2017-01-31T17:21:25.420Z,6.8
2017-01-31T17:23:37.695Z,6.79
2017-01-31T17:25:50.097Z,6.79
2017-01-31T17:28:02.490Z,6.78
2017-01-31T17:30:10.266Z,6.73
2017-01-31T17:32:22.470Z,6.66
2017-01-31T17:34:34.651Z,6.64
2017-01-31T17:36:46.858Z,6.64
2017-01-31T17:38:59.094Z,6.62
2017-01-31T17:41:11.252Z,6.61
2017-01-31T17:43:23.696Z,6.61
2017-01-31T17:45:26.173Z,6.58
2017-01-31T17:47:38.548Z,6.55
2017-01-31T17:49:50.918Z,6.52
2017-01-31T17:52:01.481Z,6.52
2017-01-31T17:54:08.773Z,6.52
2017-01-31T17:56:21.046Z,6.48
2017-01-31T17:58:28.816Z,6.45
2017-01-31T18:00:41.130Z,6.43
2017-01-31T18:02:53.284Z,6.41
2017-01-31T18:05:05.556Z,6.39
2017-01-31T18:07:25.202Z,6.39
2017-01-31T18:09:56.847Z,6.4
2017-01-31T18:12:26.969Z,6.39
2017-01-31T18:15:03.303Z,6.36
2017-01-31T18:17:31.397Z,6.34
2017-01-31T18:20:15.708Z,6.32
2017-01-31T18:23:10.244Z,6.28
2017-01-31T18:26:06.938Z,6.25
2017-01-31T18:29:02.192Z,6.24
2017-01-31T18:31:57.227Z,6.24
2017-01-31T18:34:53.375Z,6.22
2017-01-31T18:37:44.650Z,6.18
2017-01-31T18:40:39.602Z,6.18
2017-01-31T18:43:34.908Z,6.17
2017-01-31T18:46:31.720Z,6.13
2017-01-31T18:49:27.055Z,6.1
2017-01-31T18:52:20.194Z,6.05
2017-01-31T18:55:16.841Z,6.02
2017-01-31T18:58:10.768Z,6
2017-01-31T19:01:02.667Z,6.01
2017-01-31T19:03:57.146Z,6.03
2017-01-31T19:06:50.448Z,6.06
2017-01-31T19:09:45.826Z,6.02
2017-01-31T19:12:40.313Z,5.89
2017-01-31T19:15:35.929Z,5.77
2017-01-31T19:18:29.626Z,5.74
2017-01-31T19:21:28.107Z,5.74
2017-01-31T19:24:31.368Z,5.69
2017-01-31T19:27:31.296Z,5.69
2017-01-31T19:30:32.524Z,5.7
2017-01-31T19:33:32.983Z,5.71
2017-01-31T19:36:32.349Z,5.7
2017-01-31T19:39:33.203Z,5.69
2017-01-31T19:42:35.650Z,5.68
2017-01-31T19:45:34.269Z,5.65
2017-01-31T19:51:30.135Z,5.56
2017-01-31T19:54:28.412Z,5.57
2017-01-31T19:57:24.945Z,5.56
2017-01-31T20:00:29.914Z,5.56
2017-01-31T20:03:33.316Z,5.57
2017-01-31T20:06:33.593Z,5.57
2017-01-31T20:09:33.333Z,5.56
2017-01-31T20:12:32.348Z,5.53
2017-01-31T20:15:03.767Z,5.49
2017-01-31T20:17:24.521Z,5.47
2017-01-31T20:19:32.873Z,5.42
2017-01-31T20:21:45.526Z,5.4
2017-01-31T20:23:58.604Z,5.36
2017-01-31T20:26:11.024Z,5.35
2017-01-31T20:28:23.909Z,5.33
2017-01-31T20:30:36.375Z,5.31
2017-01-31T20:32:49.058Z,5.25
2017-01-31T20:35:02.073Z,5.18
2017-01-31T20:37:29.853Z,5.12
2017-01-31T20:39:52.939Z,5.01
2017-01-31T20:42:05.459Z,4.84
2017-01-31T20:44:17.696Z,4.48
2017-01-31T20:46:25.011Z,4.2
2017-01-31T20:48:32.578Z,4
2017-01-31T20:50:39.958Z,3.87
2017-01-31T20:52:52.345Z,3.77
2017-01-31T20:55:00.994Z,3.69
2017-01-31T20:57:08.482Z,3.63
2017-01-31T20:59:20.892Z,3.59
2017-01-31T21:01:31.653Z,3.56
2017-01-31T21:03:43.868Z,3.53
2017-01-31T21:05:51.346Z,3.51
2017-01-31T21:08:03.758Z,3.49
2017-01-31T21:10:16.600Z,3.49
2017-01-31T21:12:28.858Z,3.48
2017-01-31T21:14:41.159Z,3.47
2017-01-31T21:16:53.604Z,3.47
2017-01-31T21:19:05.906Z,3.47
2017-01-31T21:21:18.309Z,3.46
2017-01-31T21:23:30.642Z,3.46
2017-01-31T21:25:42.874Z,3.46
2017-01-31T21:27:55.242Z,3.46
2017-01-31T21:30:07.786Z,3.46
2017-01-31T21:32:20.424Z,3.46
2017-01-31T21:34:32.830Z,3.45
2017-01-31T21:36:46.146Z,3.46
2017-01-31T21:38:59.317Z,3.43
2017-01-31T21:41:11.752Z,3.41
2017-01-31T21:43:24.063Z,3.4
2017-01-31T21:45:36.257Z,3.4
2017-01-31T21:47:48.411Z,3.39
2017-01-31T21:50:00.950Z,3.4
2017-01-31T21:52:13.289Z,3.41
2017-01-31T21:54:25.614Z,3.42
2017-01-31T21:56:43.110Z,3.43
2017-01-31T21:59:20.895Z,3.44
2017-01-31T22:02:06.989Z,3.45
2017-01-31T22:04:33.778Z,3.46
2017-01-31T22:06:55.430Z,3.47
2017-01-31T22:09:16.473Z,3.48
2017-01-31T22:11:37.791Z,3.49
2017-01-31T22:13:58.797Z,3.5
2017-01-31T22:16:24.143Z,3.51
2017-01-31T22:18:51.162Z,3.52
2017-01-31T22:21:17.670Z,3.53
2017-01-31T22:23:43.355Z,3.54
2017-01-31T22:26:11.876Z,3.55
2017-01-31T22:28:38.723Z,3.56
2017-01-31T22:31:05.798Z,3.58
2017-01-31T22:33:32.237Z,3.58
2017-01-31T22:36:02.284Z,3.59
2017-01-31T22:38:34.041Z,3.59
2017-01-31T22:40:57.482Z,3.6
2017-01-31T22:43:28.719Z,3.59
2017-01-31T22:46:07.418Z,3.6
2017-01-31T22:48:44.689Z,3.58
2017-01-31T22:51:21.827Z,3.58
2017-01-31T22:53:44.857Z,3.58
2017-01-31T22:56:13.512Z,3.57
2017-01-31T22:58:47.570Z,3.58
2017-01-31T23:01:14.525Z,3.58
2017-01-31T23:03:37.749Z,3.6
2017-01-31T23:06:04.631Z,3.62
2017-01-31T23:08:36.171Z,3.64
2017-01-31T23:11:05.090Z,3.66
2017-01-31T23:13:43.164Z,3.69
2017-01-31T23:16:09.616Z,3.7
2017-01-31T23:18:37.439Z,3.72
2017-01-31T23:21:06.171Z,3.7
2017-01-31T23:23:29.221Z,3.69
2017-01-31T23:26:01.772Z,3.69
2017-01-31T23:28:29.836Z,3.7
2017-01-31T23:30:56.369Z,3.72
2017-01-31T23:33:22.203Z,3.75
2017-01-31T23:35:49.334Z,3.78
2017-01-31T23:38:17.521Z,3.79
2017-01-31T23:40:48.861Z,3.8
2017-01-31T23:43:18.280Z,3.83
2017-01-31T23:45:50.328Z,3.85
2017-01-31T23:48:11.790Z,3.85
2017-01-31T23:50:19.211Z,3.85
2017-01-31T23:52:31.777Z,3.84
2017-01-31T23:54:44.439Z,3.85
2017-01-31T23:56:56.727Z,3.87
2017-01-31T23:59:09.075Z,3.88
